Time;durP1;ratioP1;P1;durP2;ratioP2;P2;SDS_P1;SDS_P2;PMS_P1;PMS_P2;Temp;Humidity;BMP_temperature;BMP_pressure;BME280_temperature;BME280_humidity;BME280_pressure;Samples;Min_cycle;Max_cycle;Signal;HPM_P1;HPM_P2
2023/01/18 00:00:29;;;;;;;42.33;27.87;;;;;;;6.32;81.72;100114.33;1638342;86;21256;-55
2023/01/18 00:03:37;;;;;;;43.40;27.77;;;;;;;6.33;81.74;100121.47;1654834;85;21221;-55
2023/01/18 00:06:43;;;;;;;41.58;26.15;;;;;;;6.35;81.84;100134.41;1654831;86;21221;-55
2023/01/18 00:09:49;;;;;;;49.35;28.15;;;;;;;6.38;81.83;100124.58;1654780;85;21221;-54
2023/01/18 00:12:56;;;;;;;42.75;27.30;;;;;;;6.39;81.85;100126.27;1654693;87;21260;-55
2023/01/18 00:16:03;;;;;;;47.73;27.95;;;;;;;6.39;81.81;100127.63;1639841;86;21213;-55
2023/01/18 00:19:12;;;;;;;46.53;28.17;;;;;;;6.40;81.79;100132.08;1656840;85;21240;-55
2023/01/18 00:22:17;;;;;;;46.88;27.32;;;;;;;6.41;81.83;100125.63;1654787;87;21277;-55
2023/01/18 00:25:22;;;;;;;45.78;27.98;;;;;;;6.43;81.77;100135.84;1654678;85;21233;-55
2023/01/18 00:28:28;;;;;;;48.20;28.45;;;;;;;6.41;81.67;100132.42;1654785;87;21733;-54
2023/01/18 00:31:34;;;;;;;45.92;29.10;;;;;;;6.41;81.69;100130.19;1654701;87;21276;-55
2023/01/18 00:34:42;;;;;;;48.65;27.58;;;;;;;6.40;81.73;100123.06;1655056;85;21233;-55
2023/01/18 00:37:50;;;;;;;44.00;27.95;;;;;;;6.41;81.70;100130.19;1654874;85;21220;-56
2023/01/18 00:40:56;;;;;;;46.23;28.65;;;;;;;6.39;81.72;100130.35;1641052;86;21201;-55
2023/01/18 00:44:02;;;;;;;48.33;27.73;;;;;;;6.39;81.66;100129.52;1641082;86;21224;-55
2023/01/18 00:47:07;;;;;;;47.65;26.40;;;;;;;6.36;81.66;100122.51;1641081;87;21220;-55
2023/01/18 00:50:14;;;;;;;51.02;27.82;;;;;;;6.36;81.69;100117.08;1641210;86;21220;-56
2023/01/18 00:53:24;;;;;;;44.42;27.50;;;;;;;6.34;81.71;100119.61;1641018;86;21308;-55
2023/01/18 00:56:29;;;;;;;50.45;27.95;;;;;;;6.34;81.75;100125.91;1641025;86;21228;-55
2023/01/18 00:59:35;;;;;;;50.73;27.50;;;;;;;6.33;81.66;100127.43;1641025;86;21248;-54
2023/01/18 01:02:41;;;;;;;44.35;27.45;;;;;;;6.32;81.70;100129.28;1641141;86;21224;-55
2023/01/18 01:09:10;;;;;;;42.50;26.87;;;;;;;6.36;81.81;100131.19;1641023;86;21231;-56
2023/01/18 01:26:09;;;;;;;45.63;28.38;;;;;;;6.31;81.80;100125.36;1641107;86;20284;-54
2023/01/18 01:29:16;;;;;;;45.33;26.35;;;;;;;6.29;81.88;100124.16;1641034;86;21295;-55
2023/01/18 01:32:22;;;;;;;42.70;25.60;;;;;;;6.30;81.90;100119.55;1641356;87;21232;-55
2023/01/18 01:35:29;;;;;;;46.58;26.52;;;;;;;6.28;81.91;100120.23;1641154;86;21361;-55
2023/01/18 01:38:35;;;;;;;45.25;27.13;;;;;;;6.24;81.87;100112.89;1641000;86;21231;-55
2023/01/18 01:41:42;;;;;;;46.65;28.47;;;;;;;6.25;81.95;100118.67;1661233;86;21745;-55
2023/01/18 01:44:52;;;;;;;46.53;27.02;;;;;;;6.26;82.03;100116.32;1662079;85;21319;-55
2023/01/18 01:47:57;;;;;;;45.40;28.20;;;;;;;6.28;82.09;100122.95;1662196;86;21312;-55
2023/01/18 01:51:03;;;;;;;45.00;26.90;;;;;;;6.28;82.14;100107.48;1663974;85;21213;-55
2023/01/18 01:54:12;;;;;;;46.28;27.25;;;;;;;6.31;82.18;100113.13;1662116;85;21237;-55
2023/01/18 01:57:31;;;;;;;49.60;28.75;;;;;;;6.35;82.26;100107.72;1662180;85;21224;-55
2023/01/18 02:00:36;;;;;;;43.40;26.10;;;;;;;6.37;82.26;100117.45;1662994;85;21276;-55
2023/01/18 02:03:45;;;;;;;46.68;27.52;;;;;;;6.39;82.32;100107.77;1663117;85;21332;-55
2023/01/18 02:06:51;;;;;;;45.20;27.27;;;;;;;6.38;82.28;100119.14;1662187;85;21229;-55
2023/01/18 02:09:57;;;;;;;47.13;27.90;;;;;;;6.41;82.29;100125.63;1662087;85;21288;-55
2023/01/18 02:13:03;;;;;;;48.48;28.32;;;;;;;6.41;82.30;100114.75;1662082;85;21213;-55
2023/01/18 02:16:41;;;;;;;46.92;28.38;;;;;;;6.42;82.30;100115.13;1662237;86;21220;-56
2023/01/18 02:20:29;;;;;;;50.60;28.42;;;;;;;6.42;82.31;100102.02;1662063;85;21259;-55
2023/01/18 02:23:42;;;;;;;49.13;28.55;;;;;;;6.42;82.28;100113.77;1662092;84;21216;-54
2023/01/18 02:27:00;;;;;;;46.02;28.30;;;;;;;6.43;82.31;100105.94;1662266;86;21284;-55
2023/01/18 02:30:28;;;;;;;41.58;26.25;;;;;;;6.44;82.33;100106.28;1662182;85;21404;-56
2023/01/18 02:33:43;;;;;;;47.33;27.67;;;;;;;6.45;82.36;100121.59;1662259;85;21220;-55
2023/01/18 02:37:10;;;;;;;47.43;27.05;;;;;;;6.44;82.36;100119.87;1662241;85;21264;-54
2023/01/18 02:40:32;;;;;;;47.45;29.50;;;;;;;6.46;82.41;100112.42;1662204;85;21224;-56
2023/01/18 02:47:04;;;;;;;43.70;25.92;;;;;;;6.50;82.53;100115.16;1645154;86;21217;-54
2023/01/18 02:50:09;;;;;;;44.77;27.35;;;;;;;6.56;82.60;100120.00;1648407;85;22146;-55
2023/01/18 02:53:14;;;;;;;45.28;27.87;;;;;;;6.59;82.59;100119.69;1642401;86;21749;-55
2023/01/18 02:56:37;;;;;;;42.60;26.50;;;;;;;6.58;82.49;100122.03;1645496;86;21292;-55
2023/01/18 02:59:49;;;;;;;39.63;23.73;;;;;;;6.59;82.50;100126.48;1645409;86;21233;-56
2023/01/18 03:02:55;;;;;;;43.05;25.92;;;;;;;6.62;82.60;100131.60;1645080;87;21213;-54
2023/01/18 03:06:01;;;;;;;40.63;25.90;;;;;;;6.63;82.56;100121.59;1647982;85;21225;-55
2023/01/18 03:09:08;;;;;;;44.65;26.97;;;;;;;6.65;82.58;100131.78;1645141;86;21268;-55
2023/01/18 03:12:46;;;;;;;43.52;26.42;;;;;;;6.67;82.59;100127.91;1646899;85;21743;-55
2023/01/18 03:16:05;;;;;;;40.00;24.23;;;;;;;6.69;82.58;100129.94;1626701;87;21296;-55
2023/01/18 03:26:19;;;;;;;39.33;24.02;;;;;;;6.68;82.47;100129.61;1645453;86;21221;-55
2023/01/18 03:36:13;;;;;;;42.60;24.72;;;;;;;6.71;82.51;100138.81;1646717;84;21233;-54
2023/01/18 03:39:27;;;;;;;40.23;25.50;;;;;;;6.71;82.51;100138.81;1645194;86;21229;-55
2023/01/18 03:43:01;;;;;;;39.98;23.60;;;;;;;6.71;82.48;100140.17;1652743;81;21256;-56
2023/01/18 03:46:07;;;;;;;41.13;24.70;;;;;;;6.71;82.56;100145.61;1654708;87;21249;-56
2023/01/18 03:49:15;;;;;;;42.43;24.85;;;;;;;6.70;82.53;100141.69;1656541;85;21376;-56
2023/01/18 03:52:28;;;;;;;39.63;25.02;;;;;;;6.69;82.53;100144.07;1654777;85;21224;-56
2023/01/18 03:55:51;;;;;;;38.78;24.63;;;;;;;6.69;82.56;100144.07;1657078;85;21249;-54
2023/01/18 03:58:57;;;;;;;39.08;23.52;;;;;;;6.68;82.57;100148.64;1630525;85;21252;-54
2023/01/18 04:02:02;;;;;;;41.08;25.02;;;;;;;6.68;82.64;100147.28;1654714;85;21217;-54
2023/01/18 04:05:09;;;;;;;38.42;23.90;;;;;;;6.71;82.71;100146.11;1654815;85;21252;-55
2023/01/18 04:08:15;;;;;;;42.08;26.35;;;;;;;6.73;82.74;100153.61;1638496;86;21633;-54
2023/01/18 04:11:21;;;;;;;38.33;25.12;;;;;;;6.73;82.79;100144.95;1654765;85;21228;-55
2023/01/18 04:14:27;;;;;;;40.25;25.00;;;;;;;6.74;82.78;100153.98;1654691;85;21283;-54
2023/01/18 04:17:34;;;;;;;38.20;24.27;;;;;;;6.74;82.83;100143.94;1654722;87;21252;-55
2023/01/18 04:20:40;;;;;;;39.00;24.70;;;;;;;6.76;82.86;100152.80;1654727;85;21262;-54
2023/01/18 04:23:47;;;;;;;40.15;24.60;;;;;;;6.77;82.83;100155.02;1655072;85;21282;-54
2023/01/18 04:26:53;;;;;;;40.98;25.68;;;;;;;6.77;82.86;100151.77;1654689;85;21221;-55
2023/01/18 04:29:59;;;;;;;39.20;25.27;;;;;;;6.76;82.84;100159.59;1654493;85;21261;-55
2023/01/18 04:33:05;;;;;;;38.65;24.90;;;;;;;6.77;82.95;100161.30;1654132;85;21253;-55
2023/01/18 04:36:11;;;;;;;39.35;25.32;;;;;;;6.80;82.98;100174.58;1654446;87;21245;-55
2023/01/18 04:39:19;;;;;;;36.15;22.82;;;;;;;6.83;83.00;100174.30;1654454;85;21253;-54
2023/01/18 04:42:25;;;;;;;38.80;23.30;;;;;;;6.88;83.13;100175.17;1654754;85;21221;-55
2023/01/18 04:45:31;;;;;;;39.78;24.57;;;;;;;6.93;83.19;100170.95;1645146;86;21272;-54
2023/01/18 04:48:37;;;;;;;37.28;23.75;;;;;;;6.99;83.14;100172.20;1657808;86;21256;-53
2023/01/18 04:51:44;;;;;;;36.95;22.48;;;;;;;6.98;83.04;100176.78;1644869;86;21241;-54
2023/01/18 04:54:50;;;;;;;40.65;24.50;;;;;;;6.98;82.96;100170.48;1646515;85;21293;-54
2023/01/18 04:58:03;;;;;;;37.85;23.83;;;;;;;6.96;82.97;100169.27;1645010;86;21233;-54
2023/01/18 05:01:15;;;;;;;36.55;22.22;;;;;;;6.97;82.96;100168.28;1645422;86;21205;-54
2023/01/18 05:04:20;;;;;;;35.55;21.50;;;;;;;6.94;82.93;100165.88;1644722;86;21582;-55
2023/01/18 05:07:26;;;;;;;34.48;21.97;;;;;;;6.98;83.01;100169.11;1645191;85;21285;-54
2023/01/18 05:10:32;;;;;;;36.17;23.38;;;;;;;6.97;83.02;100177.81;1644770;86;21217;-54
2023/01/18 05:13:39;;;;;;;36.63;21.57;;;;;;;6.98;83.07;100178.14;1646617;86;21272;-54
2023/01/18 05:16:44;;;;;;;34.43;21.17;;;;;;;7.01;83.12;100175.59;1645534;86;21217;-55
2023/01/18 05:19:52;;;;;;;34.85;21.17;;;;;;;7.02;83.10;100178.69;1645640;86;21462;-54
2023/01/18 05:23:09;;;;;;;38.28;22.58;;;;;;;6.99;83.02;100181.20;1645820;85;21241;-55
2023/01/18 05:26:13;;;;;;;33.70;21.85;;;;;;;6.97;82.98;100172.86;1645663;85;21628;-54
2023/01/18 05:29:19;;;;;;;35.73;23.07;;;;;;;6.93;82.97;100169.59;1645697;85;21241;-54
2023/01/18 05:32:25;;;;;;;32.50;21.55;;;;;;;6.92;83.02;100173.83;1645262;86;21794;-55
2023/01/18 05:35:31;;;;;;;33.18;22.50;;;;;;;6.90;83.00;100175.84;1645357;86;21297;-54
2023/01/18 05:38:36;;;;;;;40.50;23.73;;;;;;;6.90;83.06;100174.00;1646697;85;21241;-55
2023/01/18 05:41:43;;;;;;;36.73;22.73;;;;;;;6.90;83.10;100171.27;1645289;86;21260;-55
2023/01/18 05:44:50;;;;;;;33.98;21.82;;;;;;;6.89;83.13;100173.66;1646956;83;21237;-55
2023/01/18 05:47:57;;;;;;;38.08;22.75;;;;;;;6.89;83.13;100174.16;1655286;85;21280;-55
2023/01/18 05:51:01;;;;;;;35.10;22.00;;;;;;;6.86;83.13;100170.39;1671262;86;21814;-55
2023/01/18 05:54:08;;;;;;;35.30;23.02;;;;;;;6.86;83.19;100167.67;1669904;84;21245;-54
2023/01/18 05:57:14;;;;;;;36.42;21.70;;;;;;;6.87;83.20;100182.47;1671077;84;21229;-55
2023/01/18 06:00:20;;;;;;;38.17;22.67;;;;;;;6.87;83.16;100176.17;1666782;84;21420;-52
2023/01/18 06:03:28;;;;;;;36.55;22.48;;;;;;;6.85;83.11;100177.69;1664950;84;21232;-53
2023/01/18 06:06:33;;;;;;;34.30;21.85;;;;;;;6.84;83.04;100174.63;1651934;84;21257;-53
2023/01/18 06:09:40;;;;;;;34.18;22.52;;;;;;;6.84;83.06;100165.61;1633006;86;21749;-53
2023/01/18 06:12:46;;;;;;;36.03;22.13;;;;;;;6.86;83.13;100173.97;1658762;86;21256;-52
2023/01/18 06:15:53;;;;;;;36.65;21.87;;;;;;;6.88;83.15;100180.62;1667332;86;21244;-52
2023/01/18 06:18:58;;;;;;;39.78;23.10;;;;;;;6.90;83.12;100160.39;1670992;84;21581;-52
2023/01/18 06:22:03;;;;;;;39.42;22.22;;;;;;;6.89;83.04;100157.33;1655074;86;21213;-53
2023/01/18 06:25:09;;;;;;;35.20;23.22;;;;;;;6.90;83.04;100152.23;1672047;84;21298;-53
2023/01/18 06:28:15;;;;;;;35.70;22.13;;;;;;;6.91;83.04;100162.09;1671549;85;21237;-53
2023/01/18 06:31:22;;;;;;;34.50;22.10;;;;;;;6.91;82.97;100151.20;1671865;84;21243;-53
2023/01/18 06:34:27;;;;;;;37.90;22.95;;;;;;;6.91;82.95;100141.68;1641541;85;21677;-54
2023/01/18 06:37:32;;;;;;;35.05;22.40;;;;;;;6.85;82.87;100153.73;1669812;85;21217;-53
2023/01/18 06:40:38;;;;;;;37.30;22.25;;;;;;;6.79;82.82;100153.84;1664680;86;21340;-54
2023/01/18 06:43:54;;;;;;;39.08;23.32;;;;;;;6.73;82.78;100159.91;1668850;84;21236;-55
2023/01/18 06:47:23;;;;;;;32.20;20.23;;;;;;;6.73;82.77;100157.69;1690355;82;21210;-55
2023/01/18 06:50:31;;;;;;;35.65;22.62;;;;;;;6.78;82.82;100171.68;1685487;83;21240;-54
2023/01/18 06:53:37;;;;;;;39.90;22.27;;;;;;;6.85;82.91;100165.45;1691204;83;21288;-54
2023/01/18 06:56:42;;;;;;;36.73;21.23;;;;;;;6.92;82.90;100159.73;1689371;83;21813;-55
2023/01/18 06:59:52;;;;;;;36.65;20.90;;;;;;;6.96;82.88;100165.72;1684127;85;21247;-54
2023/01/18 07:03:00;;;;;;;33.05;20.65;;;;;;;6.98;82.88;100175.92;1690298;83;21240;-54
2023/01/18 07:06:10;;;;;;;35.00;22.52;;;;;;;7.01;82.96;100169.66;1688576;83;21216;-55
2023/01/18 07:09:18;;;;;;;34.75;22.02;;;;;;;7.07;83.02;100169.02;1688548;83;21244;-54
2023/01/18 07:12:25;;;;;;;34.10;20.88;;;;;;;7.13;83.04;100162.97;1687551;85;21280;-55
2023/01/18 07:15:32;;;;;;;35.20;20.80;;;;;;;7.16;83.01;100162.64;1682426;83;21218;-54
2023/01/18 07:18:42;;;;;;;36.75;21.73;;;;;;;7.20;83.00;100158.58;1659937;85;21822;-54
2023/01/18 07:21:49;;;;;;;32.13;20.35;;;;;;;7.25;82.96;100159.45;1660715;85;21230;-54
2023/01/18 07:24:54;;;;;;;31.80;20.82;;;;;;;7.30;83.00;100155.25;1661026;85;21265;-55
2023/01/18 07:28:03;;;;;;;30.95;20.35;;;;;;;7.35;82.93;100156.13;1685942;85;21220;-54
2023/01/18 07:31:09;;;;;;;33.10;20.92;;;;;;;7.36;82.84;100162.77;1662863;85;21366;-55
2023/01/18 07:34:15;;;;;;;37.03;21.25;;;;;;;7.34;82.75;100159.34;1684172;85;21227;-56
2023/01/18 07:37:20;;;;;;;31.57;20.25;;;;;;;7.31;82.74;100147.91;1687422;83;21750;-54
2023/01/18 07:40:26;;;;;;;33.15;20.77;;;;;;;7.26;82.74;100155.20;1688944;83;21275;-54
2023/01/18 07:43:32;;;;;;;31.68;20.17;;;;;;;7.19;82.61;100154.16;1663718;85;21220;-53
2023/01/18 07:46:41;;;;;;;33.83;21.95;;;;;;;7.13;82.63;100162.97;1663264;82;21299;-55
2023/01/18 07:49:46;;;;;;;35.25;20.88;;;;;;;7.11;82.67;100155.95;1651137;85;21920;-54
2023/01/18 07:52:54;;;;;;;34.40;21.70;;;;;;;7.10;82.68;100155.09;1657275;85;21299;-54
2023/01/18 07:56:06;;;;;;;33.63;21.35;;;;;;;7.02;82.61;100150.98;1669200;85;21217;-55
2023/01/18 07:59:16;;;;;;;31.90;21.40;;;;;;;6.97;82.63;100154.67;1659207;84;21400;-55
2023/01/18 08:02:23;;;;;;;34.73;20.82;;;;;;;6.95;82.69;100158.05;1650326;87;21268;-54
2023/01/18 08:05:28;;;;;;;32.13;20.88;;;;;;;6.98;82.78;100161.81;1657706;86;21233;-54
2023/01/18 08:08:37;;;;;;;32.63;20.40;;;;;;;7.06;82.90;100165.96;1677965;84;21299;-52
2023/01/18 08:11:45;;;;;;;32.70;21.57;;;;;;;7.07;82.81;100156.77;1677823;85;21216;-54
2023/01/18 08:14:54;;;;;;;30.60;21.17;;;;;;;7.08;82.79;100161.22;1677201;84;21249;-54
2023/01/18 08:18:00;;;;;;;35.90;21.95;;;;;;;7.09;82.75;100160.70;1670938;84;21237;-55
2023/01/18 08:21:10;;;;;;;34.53;21.65;;;;;;;7.07;82.70;100149.97;1676940;85;21604;-54
2023/01/18 08:24:17;;;;;;;36.58;20.88;;;;;;;7.03;82.68;100152.67;1677047;84;21808;-56
2023/01/18 08:27:27;;;;;;;30.65;19.87;;;;;;;7.05;82.75;100150.66;1678365;85;21774;-55
2023/01/18 08:30:38;;;;;;;31.27;20.45;;;;;;;7.04;82.69;100159.81;1656917;85;21224;-55
2023/01/18 08:33:47;;;;;;;31.68;21.00;;;;;;;7.04;82.73;100148.09;1642816;87;21213;-54
2023/01/18 08:36:52;;;;;;;32.28;21.10;;;;;;;7.07;82.81;100137.72;1632800;87;21299;-54
2023/01/18 08:39:59;;;;;;;31.75;21.17;;;;;;;7.13;82.86;100146.63;1600751;88;21263;-54
2023/01/18 08:43:07;;;;;;;30.20;18.55;;;;;;;7.26;82.96;100134.78;1602032;88;21219;-52
2023/01/18 08:46:15;;;;;;;31.93;19.32;;;;;;;7.40;83.06;100134.19;1590134;89;21280;-54
2023/01/18 08:49:23;;;;;;;33.48;20.62;;;;;;;7.59;83.17;100129.03;1604614;87;21864;-53
2023/01/18 08:52:29;;;;;;;32.08;20.23;;;;;;;7.76;83.13;100121.76;1644365;85;21280;-54
2023/01/18 08:55:37;;;;;;;30.57;20.30;;;;;;;7.91;83.14;100127.80;1643474;86;21253;-55
2023/01/18 08:58:44;;;;;;;28.40;19.02;;;;;;;8.05;83.13;100124.94;1643371;86;21605;-54
2023/01/18 09:01:52;;;;;;;29.95;18.52;;;;;;;8.17;83.09;100120.87;1643694;86;21221;-54
2023/01/18 09:04:57;;;;;;;29.95;18.80;;;;;;;8.27;83.14;100126.57;1668437;84;21241;-54
2023/01/18 09:08:04;;;;;;;30.90;20.12;;;;;;;8.40;83.15;100117.39;1671326;86;21201;-55
2023/01/18 09:11:11;;;;;;;28.02;18.27;;;;;;;8.48;83.09;100111.92;1673134;84;21252;-54
2023/01/18 09:14:19;;;;;;;30.85;20.50;;;;;;;8.51;82.90;100117.56;1672485;83;21257;-54
2023/01/18 09:17:26;;;;;;;28.25;18.32;;;;;;;8.50;82.87;100125.42;1672864;84;21213;-54
2023/01/18 09:20:34;;;;;;;31.10;20.20;;;;;;;8.51;82.88;100120.30;1671931;84;21237;-57
2023/01/18 09:23:42;;;;;;;30.75;19.90;;;;;;;8.50;82.84;100111.78;1672213;84;21277;-55
2023/01/18 09:26:50;;;;;;;29.40;18.98;;;;;;;8.50;82.83;100113.97;1671778;83;21253;-55
2023/01/18 09:29:57;;;;;;;30.52;20.08;;;;;;;8.48;82.78;100107.83;1672823;84;21721;-56
2023/01/18 09:33:05;;;;;;;31.10;19.37;;;;;;;8.46;82.82;100107.66;1672656;84;21209;-56
2023/01/18 09:36:16;;;;;;;32.13;19.57;;;;;;;8.41;82.80;100111.41;1670534;84;21221;-56
2023/01/18 09:39:31;;;;;;;31.73;19.75;;;;;;;8.39;82.83;100111.58;1656651;84;21185;-56
2023/01/18 09:42:45;;;;;;;30.68;19.65;;;;;;;8.40;82.85;100115.17;1660996;85;21231;-55
2023/01/18 09:45:52;;;;;;;30.00;19.02;;;;;;;8.39;82.85;100098.44;1667436;84;21272;-56
2023/01/18 09:49:05;;;;;;;31.25;19.00;;;;;;;8.41;82.94;100106.81;1655193;82;21563;-55
2023/01/18 09:52:31;;;;;;;32.42;20.32;;;;;;;8.49;83.08;100107.33;1686914;85;21248;-60
2023/01/18 09:55:55;;;;;;;29.70;19.77;;;;;;;8.53;83.05;100107.34;1688109;83;21236;-57
2023/01/18 09:59:22;;;;;;;32.85;19.57;;;;;;;8.53;83.04;100104.08;1677213;85;21220;-56
2023/01/18 10:02:42;;;;;;;31.87;19.87;;;;;;;8.56;82.99;100107.00;1675908;83;21275;-60
2023/01/18 10:06:08;;;;;;;32.63;20.48;;;;;;;8.55;82.99;100108.87;1680133;82;21993;-58
2023/01/18 10:09:43;;;;;;;26.50;18.75;;;;;;;8.57;82.99;100100.01;1685089;83;21566;-58
2023/01/18 10:12:55;;;;;;;28.70;18.90;;;;;;;8.55;82.88;100106.14;1678560;85;21815;-58
2023/01/18 10:16:03;;;;;;;29.32;18.90;;;;;;;8.52;82.85;100110.57;1688491;83;21203;-57
2023/01/18 10:19:10;;;;;;;32.48;18.90;;;;;;;8.48;82.89;100107.00;1688660;83;21289;-58
2023/01/18 10:22:31;;;;;;;28.30;18.82;;;;;;;8.44;82.88;100102.88;1688801;83;21293;-58
2023/01/18 10:25:51;;;;;;;30.85;19.75;;;;;;;8.43;82.88;100104.78;1675669;83;21296;-58
2023/01/18 10:29:20;;;;;;;32.13;20.82;;;;;;;8.39;82.85;100106.13;1668708;85;21640;-57
2023/01/18 10:32:27;;;;;;;31.90;19.80;;;;;;;8.40;82.89;100104.26;1644470;83;21626;-56
2023/01/18 10:35:39;;;;;;;31.77;21.93;;;;;;;8.39;82.86;100102.03;1680418;83;21737;-56
2023/01/18 10:38:45;;;;;;;33.73;21.75;;;;;;;8.40;82.88;100094.21;1681828;83;21272;-57
2023/01/18 10:41:50;;;;;;;31.20;20.30;;;;;;;8.41;82.86;100090.45;1668774;85;21789;-57
2023/01/18 10:44:56;;;;;;;27.50;19.70;;;;;;;8.40;82.85;100085.16;1686676;83;21243;-57
2023/01/18 10:48:04;;;;;;;28.83;19.27;;;;;;;8.38;82.87;100089.92;1683081;85;21225;-56
2023/01/18 10:51:12;;;;;;;28.27;19.15;;;;;;;8.35;82.91;100065.22;1682401;83;21287;-56
2023/01/18 10:54:32;;;;;;;31.85;20.10;;;;;;;8.35;82.95;100078.00;1682576;84;21291;-56
2023/01/18 10:57:42;;;;;;;28.52;18.45;;;;;;;8.35;83.01;100066.59;1652536;85;21217;-57
2023/01/18 11:00:49;;;;;;;29.80;18.82;;;;;;;8.38;83.09;100073.56;1685301;83;21848;-57
2023/01/18 11:04:07;;;;;;;28.98;18.27;;;;;;;8.41;83.11;100074.59;1675099;85;21291;-57
2023/01/18 11:07:12;;;;;;;32.13;19.60;;;;;;;8.45;83.14;100073.24;1683356;84;21207;-57
2023/01/18 11:10:34;;;;;;;31.10;19.30;;;;;;;8.50;83.17;100066.23;1686269;85;21236;-61
2023/01/18 11:13:53;;;;;;;29.75;19.07;;;;;;;8.53;83.18;100080.06;1688798;83;21240;-59
2023/01/18 11:17:09;;;;;;;29.05;18.15;;;;;;;8.56;83.15;100076.45;1689025;83;21321;-60
2023/01/18 11:20:56;;;;;;;28.65;18.17;;;;;;;8.57;83.13;100063.19;1689868;83;21263;-61
2023/01/18 11:24:04;;;;;;;27.13;16.87;;;;;;;8.57;83.07;100070.50;1642903;84;21259;-60
2023/01/18 11:27:21;;;;;;;35.60;20.80;;;;;;;8.56;83.16;100057.90;1637013;87;21252;-58
2023/01/18 11:30:28;;;;;;;32.42;19.90;;;;;;;8.54;83.15;100060.80;1625989;88;21264;-59
2023/01/18 11:33:36;;;;;;;30.43;19.00;;;;;;;8.56;83.23;100058.73;1626762;85;21284;-61
2023/01/18 11:36:48;;;;;;;30.97;19.75;;;;;;;8.54;83.23;100052.61;1641606;87;21252;-60
2023/01/18 11:39:58;;;;;;;26.00;17.67;;;;;;;8.54;83.24;100042.20;1649546;85;21762;-59
2023/01/18 11:43:24;;;;;;;31.65;19.35;;;;;;;8.58;83.33;100050.37;1648432;87;21769;-59
2023/01/18 11:46:50;;;;;;;30.60;19.00;;;;;;;8.63;83.38;100037.07;1638807;87;21237;-60
2023/01/18 11:50:23;;;;;;;29.48;18.32;;;;;;;8.72;83.40;100026.52;1647820;85;21243;-59
2023/01/18 11:53:47;;;;;;;29.35;18.40;;;;;;;8.81;83.38;100039.97;1612151;88;21221;-59
2023/01/18 11:56:58;;;;;;;26.73;16.55;;;;;;;8.88;83.34;100030.55;1616354;87;21284;-61
2023/01/18 12:00:05;;;;;;;28.77;18.00;;;;;;;8.97;83.31;100039.08;1631950;87;21792;-61
2023/01/18 12:03:43;;;;;;;28.35;18.37;;;;;;;9.01;83.22;100040.42;1606527;86;21591;-59
2023/01/18 12:07:04;;;;;;;27.07;17.77;;;;;;;9.01;83.16;100041.79;1614739;87;21232;-61
2023/01/18 12:10:09;;;;;;;25.40;17.00;;;;;;;9.00;83.08;100052.38;1607802;87;21205;-59
2023/01/18 12:13:36;;;;;;;28.17;18.45;;;;;;;8.93;83.01;100059.05;1611945;87;21280;-59
2023/01/18 12:17:01;;;;;;;32.65;20.10;;;;;;;8.90;83.13;100053.94;1621848;87;21325;-59
2023/01/18 12:20:37;;;;;;;30.95;20.12;;;;;;;8.89;83.12;100048.65;1627230;86;22150;-60
2023/01/18 12:24:13;;;;;;;27.65;17.98;;;;;;;8.85;83.15;100043.19;1619006;87;21220;-59
2023/01/18 12:27:37;;;;;;;28.12;17.40;;;;;;;8.79;83.15;100041.15;1612615;86;21267;-60
2023/01/18 12:31:02;;;;;;;;;;;;;;;8.74;83.24;100051.73;1639307;86;21548;-61
2023/01/18 12:34:24;;;;;;;30.48;18.27;;;;;;;8.69;83.30;100048.66;1617130;87;20216;-60
2023/01/18 12:37:40;;;;;;;30.12;18.73;;;;;;;8.65;83.41;100041.85;1629588;86;21583;-60
2023/01/18 12:41:05;;;;;;;28.42;18.62;;;;;;;8.63;83.46;100058.90;1622722;87;21611;-61
2023/01/18 12:44:49;;;;;;;29.55;18.90;;;;;;;8.61;83.49;100060.44;1614074;87;21299;-61
2023/01/18 12:48:28;;;;;;;29.40;17.80;;;;;;;8.60;83.56;100057.88;1632372;86;21291;-60
2023/01/18 12:51:38;;;;;;;24.65;17.27;;;;;;;8.62;83.58;100061.30;1637448;84;21238;-59
2023/01/18 12:55:02;;;;;;;28.62;18.52;;;;;;;8.60;83.57;100060.11;1638753;86;21632;-60
2023/01/18 12:58:07;;;;;;;26.25;17.70;;;;;;;8.60;83.58;100063.34;1624246;87;21245;-60
2023/01/18 13:01:13;;;;;;;28.02;18.27;;;;;;;8.58;83.64;100063.51;1613643;88;21798;-59
2023/01/18 13:04:27;;;;;;;28.00;17.20;;;;;;;8.59;83.68;100064.37;1613973;88;21770;-58
2023/01/18 13:07:37;;;;;;;29.20;18.65;;;;;;;8.57;83.69;100066.41;1616443;87;21232;-59
2023/01/18 13:10:43;;;;;;;28.35;18.80;;;;;;;8.57;83.73;100060.45;1639551;84;21288;-60
2023/01/18 13:13:50;;;;;;;28.02;18.95;;;;;;;8.56;83.71;100067.45;1641380;87;21825;-58
2023/01/18 13:17:13;;;;;;;31.10;19.90;;;;;;;8.52;83.69;100053.29;1640802;86;21566;-60
2023/01/18 13:20:25;;;;;;;26.87;18.70;;;;;;;8.49;83.71;100052.77;1641100;85;21345;-60
2023/01/18 13:24:15;;;;;;;30.20;19.40;;;;;;;8.46;83.75;100068.98;1640675;86;21282;-59
2023/01/18 13:27:22;;;;;;;32.28;19.52;;;;;;;8.44;83.73;100057.87;1634481;87;21221;-60
2023/01/18 13:30:29;;;;;;;28.75;18.92;;;;;;;8.43;83.80;100064.37;1637236;85;21240;-61
2023/01/18 13:33:39;;;;;;;26.65;17.80;;;;;;;8.45;83.89;100071.34;1640528;86;21229;-61
2023/01/18 13:36:51;;;;;;;31.68;18.52;;;;;;;8.47;83.93;100070.67;1636456;87;21225;-61
2023/01/18 13:39:58;;;;;;;27.35;18.75;;;;;;;8.48;83.84;100079.72;1586809;88;21283;-60
2023/01/18 13:42:59;;;;;;;28.30;18.90;;;;;;;8.43;83.82;100085.69;1592508;87;21297;-61
2023/01/18 13:46:17;;;;;;;32.38;20.37;;;;;;;8.41;83.82;100089.59;1640797;85;21638;-60
2023/01/18 13:49:34;;;;;;;29.37;20.27;;;;;;;8.37;83.76;100082.78;1641229;86;21217;-60
2023/01/18 13:52:42;;;;;;;31.00;20.00;;;;;;;8.34;83.76;100094.03;1628324;84;21254;-60
2023/01/18 13:56:11;;;;;;;27.87;19.37;;;;;;;8.32;83.79;100089.25;1667459;84;21254;-62
2023/01/18 13:59:26;;;;;;;28.12;18.32;;;;;;;8.31;83.84;100090.28;1632376;85;21846;-60
2023/01/18 14:02:49;;;;;;;30.17;18.80;;;;;;;8.29;83.85;100084.13;1656255;86;21761;-61
2023/01/18 14:05:52;;;;;;;31.35;18.80;;;;;;;8.25;83.82;100086.34;1669288;85;21232;-60
2023/01/18 14:09:02;;;;;;;28.15;17.95;;;;;;;8.23;83.88;100083.45;1629979;86;21229;-59
2023/01/18 14:12:08;;;;;;;27.73;18.17;;;;;;;8.22;83.92;100089.38;1642849;86;21516;-65
2023/01/18 14:15:18;;;;;;;24.87;17.50;;;;;;;8.24;83.99;100088.73;1664082;85;21292;-61
2023/01/18 14:18:36;;;;;;;32.70;19.77;;;;;;;8.24;84.03;100098.78;1668476;86;21217;-60
2023/01/18 14:22:11;;;;;;;31.55;19.70;;;;;;;8.22;84.04;100098.91;1655418;85;21308;-61
2023/01/18 14:25:43;;;;;;;32.13;20.10;;;;;;;8.22;84.08;100088.00;1661721;86;21205;-61
2023/01/18 14:29:01;;;;;;;28.70;19.05;;;;;;;8.23;84.06;100087.54;1665628;84;21281;-61
2023/01/18 14:32:08;;;;;;;33.50;20.30;;;;;;;8.20;83.98;100104.17;1647252;86;21230;-61
2023/01/18 14:35:31;;;;;;;32.60;21.00;;;;;;;8.18;83.96;100099.42;1665882;85;21766;-60
2023/01/18 14:38:47;;;;;;;33.80;20.40;;;;;;;8.16;83.97;100098.73;1627938;86;21281;-63
2023/01/18 14:42:03;;;;;;;33.20;20.77;;;;;;;8.15;84.01;100096.50;1641464;87;21220;-62
2023/01/18 14:45:12;;;;;;;30.97;20.30;;;;;;;8.13;84.03;100090.89;1642023;86;21249;-54
2023/01/18 14:48:25;;;;;;;33.23;20.97;;;;;;;8.11;84.04;100095.14;1642312;87;21213;-57
2023/01/18 14:51:34;;;;;;;34.80;21.70;;;;;;;8.11;84.03;100099.73;1649033;83;21220;-55
2023/01/18 14:54:33;;;;;;;;;;;;;;;8.09;84.09;100100.41;1672826;82;21241;-54
2023/01/18 14:57:41;;;;;;;36.20;21.52;;;;;;;8.08;84.11;100103.66;1635242;84;20213;-55
2023/01/18 15:00:58;;;;;;;34.53;20.90;;;;;;;8.07;84.17;100096.48;1627083;86;21247;-54
2023/01/18 15:04:09;;;;;;;32.30;20.15;;;;;;;8.09;84.22;100102.63;1632642;86;21261;-54
2023/01/18 15:07:17;;;;;;;32.50;21.07;;;;;;;8.10;84.26;100107.58;1665386;86;21212;-47
2023/01/18 15:10:34;;;;;;;31.95;19.90;;;;;;;8.10;84.27;100104.85;1642197;86;21239;-50
2023/01/18 15:13:41;;;;;;;29.05;18.77;;;;;;;8.14;84.39;100110.30;1641721;86;21237;-50